sensor_id;sensor_type;location;lat;lon;timestamp;P1;durP1;ratioP1;P2;durP2;ratioP2
4794;SDS011;2411;47.060;15.064;2023-05-20T00:01:51;6.87;;;6.03;;
4794;SDS011;2411;47.060;15.064;2023-05-20T00:04:19;9.53;;;7.40;;
4794;SDS011;2411;47.060;15.064;2023-05-20T00:06:46;7.47;;;6.80;;
4794;SDS011;2411;47.060;15.064;2023-05-20T00:09:13;6.73;;;6.10;;
4794;SDS011;2411;47.060;15.064;2023-05-20T00:11:42;7.77;;;6.60;;
4794;SDS011;2411;47.060;15.064;2023-05-20T00:14:11;7.03;;;6.20;;
4794;SDS011;2411;47.060;15.064;2023-05-20T00:16:38;6.90;;;6.20;;
4794;SDS011;2411;47.060;15.064;2023-05-20T00:19:06;7.27;;;6.57;;
4794;SDS011;2411;47.060;15.064;2023-05-20T00:21:34;6.77;;;5.60;;
4794;SDS011;2411;47.060;15.064;2023-05-20T00:24:01;6.77;;;6.17;;
4794;SDS011;2411;47.060;15.064;2023-05-20T00:26:28;8.63;;;6.03;;
4794;SDS011;2411;47.060;15.064;2023-05-20T00:28:56;8.60;;;6.70;;
4794;SDS011;2411;47.060;15.064;2023-05-20T00:31:23;8.00;;;6.33;;
4794;SDS011;2411;47.060;15.064;2023-05-20T00:33:51;7.80;;;5.97;;
4794;SDS011;2411;47.060;15.064;2023-05-20T00:36:18;6.80;;;6.03;;
4794;SDS011;2411;47.060;15.064;2023-05-20T00:38:45;10.20;;;6.77;;
4794;SDS011;2411;47.060;15.064;2023-05-20T00:41:13;9.83;;;6.80;;
4794;SDS011;2411;47.060;15.064;2023-05-20T00:43:40;9.60;;;6.37;;
4794;SDS011;2411;47.060;15.064;2023-05-20T00:46:08;9.10;;;7.30;;
4794;SDS011;2411;47.060;15.064;2023-05-20T00:48:39;9.27;;;7.33;;
4794;SDS011;2411;47.060;15.064;2023-05-20T00:51:09;7.67;;;6.67;;
4794;SDS011;2411;47.060;15.064;2023-05-20T00:53:38;10.80;;;7.70;;
4794;SDS011;2411;47.060;15.064;2023-05-20T00:56:07;8.10;;;7.23;;
4794;SDS011;2411;47.060;15.064;2023-05-20T00:58:34;7.90;;;7.10;;
4794;SDS011;2411;47.060;15.064;2023-05-20T01:01:03;8.27;;;7.47;;
4794;SDS011;2411;47.060;15.064;2023-05-20T01:03:32;9.30;;;7.70;;
4794;SDS011;2411;47.060;15.064;2023-05-20T01:05:59;8.80;;;6.80;;
4794;SDS011;2411;47.060;15.064;2023-05-20T01:08:27;9.73;;;8.73;;
4794;SDS011;2411;47.060;15.064;2023-05-20T01:11:19;8.80;;;8.00;;
4794;SDS011;2411;47.060;15.064;2023-05-20T01:13:55;8.17;;;7.37;;
4794;SDS011;2411;47.060;15.064;2023-05-20T01:16:27;8.20;;;7.20;;
4794;SDS011;2411;47.060;15.064;2023-05-20T01:18:57;7.97;;;7.17;;
4794;SDS011;2411;47.060;15.064;2023-05-20T01:21:25;8.70;;;7.43;;
4794;SDS011;2411;47.060;15.064;2023-05-20T01:23:56;7.10;;;6.30;;
4794;SDS011;2411;47.060;15.064;2023-05-20T01:26:23;9.00;;;7.37;;
4794;SDS011;2411;47.060;15.064;2023-05-20T01:28:52;8.60;;;7.30;;
4794;SDS011;2411;47.060;15.064;2023-05-20T01:31:22;9.27;;;8.43;;
4794;SDS011;2411;47.060;15.064;2023-05-20T01:33:53;7.43;;;6.77;;
4794;SDS011;2411;47.060;15.064;2023-05-20T01:36:24;8.00;;;7.30;;
4794;SDS011;2411;47.060;15.064;2023-05-20T01:38:53;8.67;;;7.40;;
4794;SDS011;2411;47.060;15.064;2023-05-20T01:41:22;9.27;;;8.40;;
4794;SDS011;2411;47.060;15.064;2023-05-20T01:43:52;8.40;;;7.70;;
4794;SDS011;2411;47.060;15.064;2023-05-20T01:46:21;7.53;;;6.83;;
4794;SDS011;2411;47.060;15.064;2023-05-20T01:48:48;7.73;;;7.03;;
4794;SDS011;2411;47.060;15.064;2023-05-20T01:51:16;9.30;;;8.40;;
4794;SDS011;2411;47.060;15.064;2023-05-20T01:53:43;12.93;;;7.53;;
4794;SDS011;2411;47.060;15.064;2023-05-20T01:56:10;8.13;;;7.03;;
4794;SDS011;2411;47.060;15.064;2023-05-20T01:58:38;9.00;;;7.23;;
4794;SDS011;2411;47.060;15.064;2023-05-20T02:01:23;7.87;;;7.17;;
4794;SDS011;2411;47.060;15.064;2023-05-20T02:04:09;10.27;;;7.70;;
4794;SDS011;2411;47.060;15.064;2023-05-20T02:06:37;7.47;;;6.80;;
4794;SDS011;2411;47.060;15.064;2023-05-20T02:09:04;8.57;;;7.40;;
4794;SDS011;2411;47.060;15.064;2023-05-20T02:11:32;7.00;;;6.50;;
4794;SDS011;2411;47.060;15.064;2023-05-20T02:13:59;8.23;;;7.40;;
4794;SDS011;2411;47.060;15.064;2023-05-20T02:16:26;7.90;;;7.03;;
4794;SDS011;2411;47.060;15.064;2023-05-20T02:18:54;9.60;;;8.70;;
4794;SDS011;2411;47.060;15.064;2023-05-20T02:21:21;6.90;;;6.30;;
4794;SDS011;2411;47.060;15.064;2023-05-20T02:23:48;10.37;;;7.73;;
4794;SDS011;2411;47.060;15.064;2023-05-20T02:26:16;8.57;;;7.87;;
4794;SDS011;2411;47.060;15.064;2023-05-20T02:28:43;9.50;;;7.50;;
4794;SDS011;2411;47.060;15.064;2023-05-20T02:31:12;7.00;;;6.37;;
4794;SDS011;2411;47.060;15.064;2023-05-20T02:33:39;8.03;;;7.07;;
4794;SDS011;2411;47.060;15.064;2023-05-20T02:36:07;8.57;;;7.67;;
4794;SDS011;2411;47.060;15.064;2023-05-20T02:38:34;8.80;;;8.00;;
4794;SDS011;2411;47.060;15.064;2023-05-20T02:41:01;8.07;;;7.20;;
4794;SDS011;2411;47.060;15.064;2023-05-20T02:43:31;9.97;;;9.07;;
4794;SDS011;2411;47.060;15.064;2023-05-20T02:45:58;7.70;;;7.00;;
4794;SDS011;2411;47.060;15.064;2023-05-20T02:48:26;9.10;;;8.30;;
4794;SDS011;2411;47.060;15.064;2023-05-20T02:50:53;8.30;;;7.23;;
4794;SDS011;2411;47.060;15.064;2023-05-20T02:53:21;11.30;;;7.73;;
4794;SDS011;2411;47.060;15.064;2023-05-20T02:55:48;9.33;;;8.43;;
4794;SDS011;2411;47.060;15.064;2023-05-20T02:58:16;9.60;;;8.70;;
4794;SDS011;2411;47.060;15.064;2023-05-20T03:00:43;11.03;;;9.90;;
4794;SDS011;2411;47.060;15.064;2023-05-20T03:03:10;9.90;;;9.10;;
4794;SDS011;2411;47.060;15.064;2023-05-20T03:05:39;8.20;;;7.40;;
4794;SDS011;2411;47.060;15.064;2023-05-20T03:08:08;8.17;;;7.37;;
4794;SDS011;2411;47.060;15.064;2023-05-20T03:10:39;7.93;;;7.20;;
4794;SDS011;2411;47.060;15.064;2023-05-20T03:13:06;9.43;;;7.97;;
4794;SDS011;2411;47.060;15.064;2023-05-20T03:15:38;8.03;;;7.40;;
4794;SDS011;2411;47.060;15.064;2023-05-20T03:18:06;9.60;;;8.60;;
4794;SDS011;2411;47.060;15.064;2023-05-20T03:20:34;8.80;;;8.00;;
4794;SDS011;2411;47.060;15.064;2023-05-20T03:23:04;8.00;;;7.30;;
4794;SDS011;2411;47.060;15.064;2023-05-20T03:25:32;8.47;;;7.77;;
4794;SDS011;2411;47.060;15.064;2023-05-20T03:28:00;8.40;;;7.30;;
4794;SDS011;2411;47.060;15.064;2023-05-20T03:30:27;8.00;;;7.20;;
4794;SDS011;2411;47.060;15.064;2023-05-20T03:32:55;8.70;;;7.90;;
4794;SDS011;2411;47.060;15.064;2023-05-20T03:35:23;8.00;;;7.30;;
4794;SDS011;2411;47.060;15.064;2023-05-20T03:37:51;9.40;;;8.40;;
4794;SDS011;2411;47.060;15.064;2023-05-20T03:40:19;9.60;;;7.90;;
4794;SDS011;2411;47.060;15.064;2023-05-20T03:42:46;9.60;;;8.80;;
4794;SDS011;2411;47.060;15.064;2023-05-20T03:45:15;8.40;;;7.63;;
4794;SDS011;2411;47.060;15.064;2023-05-20T03:47:42;8.17;;;7.40;;
4794;SDS011;2411;47.060;15.064;2023-05-20T03:50:10;18.63;;;7.93;;
4794;SDS011;2411;47.060;15.064;2023-05-20T03:52:37;8.53;;;7.23;;
4794;SDS011;2411;47.060;15.064;2023-05-20T03:55:06;8.93;;;8.13;;
4794;SDS011;2411;47.060;15.064;2023-05-20T03:57:34;8.37;;;7.57;;
4794;SDS011;2411;47.060;15.064;2023-05-20T04:00:03;8.07;;;7.27;;
4794;SDS011;2411;47.060;15.064;2023-05-20T04:02:36;10.90;;;7.90;;
4794;SDS011;2411;47.060;15.064;2023-05-20T04:05:04;8.07;;;7.33;;
4794;SDS011;2411;47.060;15.064;2023-05-20T04:07:34;8.40;;;7.60;;
4794;SDS011;2411;47.060;15.064;2023-05-20T04:10:02;8.97;;;7.97;;
4794;SDS011;2411;47.060;15.064;2023-05-20T04:12:31;8.53;;;7.83;;
4794;SDS011;2411;47.060;15.064;2023-05-20T04:14:58;8.63;;;7.87;;
4794;SDS011;2411;47.060;15.064;2023-05-20T04:17:28;8.70;;;7.90;;
4794;SDS011;2411;47.060;15.064;2023-05-20T04:19:56;8.00;;;7.20;;
4794;SDS011;2411;47.060;15.064;2023-05-20T04:22:25;9.20;;;7.60;;
4794;SDS011;2411;47.060;15.064;2023-05-20T04:24:53;7.30;;;6.60;;
4794;SDS011;2411;47.060;15.064;2023-05-20T04:27:22;7.00;;;6.30;;
4794;SDS011;2411;47.060;15.064;2023-05-20T04:29:49;7.70;;;6.93;;
4794;SDS011;2411;47.060;15.064;2023-05-20T04:32:18;8.53;;;7.83;;
4794;SDS011;2411;47.060;15.064;2023-05-20T04:34:45;9.63;;;8.50;;
4794;SDS011;2411;47.060;15.064;2023-05-20T04:37:13;10.33;;;7.93;;
4794;SDS011;2411;47.060;15.064;2023-05-20T04:39:41;8.47;;;7.63;;
4794;SDS011;2411;47.060;15.064;2023-05-20T04:42:09;9.20;;;8.30;;
4794;SDS011;2411;47.060;15.064;2023-05-20T04:44:36;8.00;;;7.20;;
4794;SDS011;2411;47.060;15.064;2023-05-20T04:47:05;6.90;;;6.20;;
4794;SDS011;2411;47.060;15.064;2023-05-20T04:49:35;8.00;;;7.40;;
4794;SDS011;2411;47.060;15.064;2023-05-20T04:52:02;6.33;;;5.83;;
4794;SDS011;2411;47.060;15.064;2023-05-20T04:54:30;7.97;;;7.27;;
4794;SDS011;2411;47.060;15.064;2023-05-20T04:56:58;6.87;;;6.23;;
4794;SDS011;2411;47.060;15.064;2023-05-20T04:59:25;6.80;;;6.30;;
4794;SDS011;2411;47.060;15.064;2023-05-20T05:01:53;6.70;;;6.20;;
4794;SDS011;2411;47.060;15.064;2023-05-20T05:04:20;6.23;;;5.73;;
4794;SDS011;2411;47.060;15.064;2023-05-20T05:06:48;6.57;;;5.97;;
4794;SDS011;2411;47.060;15.064;2023-05-20T05:09:16;6.93;;;6.43;;
4794;SDS011;2411;47.060;15.064;2023-05-20T05:11:43;6.87;;;6.37;;
4794;SDS011;2411;47.060;15.064;2023-05-20T05:14:11;7.30;;;6.70;;
4794;SDS011;2411;47.060;15.064;2023-05-20T05:16:38;7.57;;;6.87;;
4794;SDS011;2411;47.060;15.064;2023-05-20T05:19:05;5.73;;;5.33;;
4794;SDS011;2411;47.060;15.064;2023-05-20T05:21:34;6.87;;;6.30;;
4794;SDS011;2411;47.060;15.064;2023-05-20T05:24:01;8.23;;;7.60;;
4794;SDS011;2411;47.060;15.064;2023-05-20T05:26:29;7.00;;;6.40;;
4794;SDS011;2411;47.060;15.064;2023-05-20T05:28:56;7.17;;;6.57;;
4794;SDS011;2411;47.060;15.064;2023-05-20T05:31:24;6.80;;;6.13;;
4794;SDS011;2411;47.060;15.064;2023-05-20T05:33:51;6.53;;;6.10;;
4794;SDS011;2411;47.060;15.064;2023-05-20T05:36:18;7.10;;;6.40;;
4794;SDS011;2411;47.060;15.064;2023-05-20T05:38:45;6.30;;;5.70;;
4794;SDS011;2411;47.060;15.064;2023-05-20T05:41:13;6.03;;;5.57;;
4794;SDS011;2411;47.060;15.064;2023-05-20T05:43:41;6.30;;;5.70;;
4794;SDS011;2411;47.060;15.064;2023-05-20T05:46:10;6.60;;;6.10;;
4794;SDS011;2411;47.060;15.064;2023-05-20T05:48:38;7.13;;;6.47;;
4794;SDS011;2411;47.060;15.064;2023-05-20T05:51:05;6.70;;;6.10;;
4794;SDS011;2411;47.060;15.064;2023-05-20T05:53:32;7.00;;;6.40;;
4794;SDS011;2411;47.060;15.064;2023-05-20T05:56:00;7.60;;;7.00;;
4794;SDS011;2411;47.060;15.064;2023-05-20T05:58:28;9.63;;;7.50;;
4794;SDS011;2411;47.060;15.064;2023-05-20T06:00:55;7.50;;;6.80;;
4794;SDS011;2411;47.060;15.064;2023-05-20T06:03:23;7.50;;;6.73;;
4794;SDS011;2411;47.060;15.064;2023-05-20T06:05:51;6.53;;;5.77;;
4794;SDS011;2411;47.060;15.064;2023-05-20T06:08:18;6.93;;;6.40;;
4794;SDS011;2411;47.060;15.064;2023-05-20T06:10:46;9.77;;;6.73;;
4794;SDS011;2411;47.060;15.064;2023-05-20T06:13:17;6.77;;;6.10;;
4794;SDS011;2411;47.060;15.064;2023-05-20T06:15:44;6.70;;;6.20;;
4794;SDS011;2411;47.060;15.064;2023-05-20T06:18:12;7.10;;;6.40;;
4794;SDS011;2411;47.060;15.064;2023-05-20T06:20:39;7.33;;;6.73;;
4794;SDS011;2411;47.060;15.064;2023-05-20T06:23:06;6.80;;;6.20;;
4794;SDS011;2411;47.060;15.064;2023-05-20T06:25:34;6.60;;;6.00;;
4794;SDS011;2411;47.060;15.064;2023-05-20T06:28:01;6.87;;;6.30;;
4794;SDS011;2411;47.060;15.064;2023-05-20T06:30:29;6.87;;;6.30;;
4794;SDS011;2411;47.060;15.064;2023-05-20T06:32:56;7.00;;;6.40;;
4794;SDS011;2411;47.060;15.064;2023-05-20T06:35:24;8.53;;;7.63;;
4794;SDS011;2411;47.060;15.064;2023-05-20T06:37:51;7.33;;;6.73;;
4794;SDS011;2411;47.060;15.064;2023-05-20T06:40:19;6.83;;;6.30;;
4794;SDS011;2411;47.060;15.064;2023-05-20T06:42:47;5.53;;;5.03;;
4794;SDS011;2411;47.060;15.064;2023-05-20T06:45:14;4.23;;;3.93;;
4794;SDS011;2411;47.060;15.064;2023-05-20T06:47:42;5.47;;;5.07;;
4794;SDS011;2411;47.060;15.064;2023-05-20T06:50:10;5.00;;;4.60;;
4794;SDS011;2411;47.060;15.064;2023-05-20T06:52:37;4.47;;;4.07;;
4794;SDS011;2411;47.060;15.064;2023-05-20T06:55:05;5.53;;;4.80;;
4794;SDS011;2411;47.060;15.064;2023-05-20T06:57:32;8.90;;;4.43;;
4794;SDS011;2411;47.060;15.064;2023-05-20T06:59:59;5.07;;;4.70;;
4794;SDS011;2411;47.060;15.064;2023-05-20T07:02:27;4.90;;;4.50;;
4794;SDS011;2411;47.060;15.064;2023-05-20T07:04:54;5.10;;;4.60;;
4794;SDS011;2411;47.060;15.064;2023-05-20T07:07:21;4.73;;;4.40;;
4794;SDS011;2411;47.060;15.064;2023-05-20T07:09:49;4.77;;;4.47;;
4794;SDS011;2411;47.060;15.064;2023-05-20T07:12:16;7.70;;;4.17;;
4794;SDS011;2411;47.060;15.064;2023-05-20T07:14:43;4.47;;;4.17;;
4794;SDS011;2411;47.060;15.064;2023-05-20T07:17:11;4.30;;;4.00;;
4794;SDS011;2411;47.060;15.064;2023-05-20T07:19:38;5.30;;;4.87;;
4794;SDS011;2411;47.060;15.064;2023-05-20T07:22:06;4.83;;;4.47;;
4794;SDS011;2411;47.060;15.064;2023-05-20T07:24:34;4.90;;;4.40;;
4794;SDS011;2411;47.060;15.064;2023-05-20T07:27:02;5.60;;;5.10;;
4794;SDS011;2411;47.060;15.064;2023-05-20T07:29:29;5.07;;;4.57;;
4794;SDS011;2411;47.060;15.064;2023-05-20T07:31:57;5.40;;;4.90;;
4794;SDS011;2411;47.060;15.064;2023-05-20T07:34:24;5.50;;;4.40;;
4794;SDS011;2411;47.060;15.064;2023-05-20T07:36:52;8.00;;;4.87;;
4794;SDS011;2411;47.060;15.064;2023-05-20T07:39:19;5.83;;;5.33;;
4794;SDS011;2411;47.060;15.064;2023-05-20T07:41:46;4.80;;;4.40;;
4794;SDS011;2411;47.060;15.064;2023-05-20T07:44:14;5.80;;;5.30;;
4794;SDS011;2411;47.060;15.064;2023-05-20T07:46:41;5.50;;;5.00;;
4794;SDS011;2411;47.060;15.064;2023-05-20T07:49:09;6.00;;;4.40;;
4794;SDS011;2411;47.060;15.064;2023-05-20T07:51:36;4.93;;;4.53;;
4794;SDS011;2411;47.060;15.064;2023-05-20T07:54:04;4.80;;;4.40;;
4794;SDS011;2411;47.060;15.064;2023-05-20T07:56:32;4.90;;;4.50;;
4794;SDS011;2411;47.060;15.064;2023-05-20T07:58:59;5.70;;;4.63;;
4794;SDS011;2411;47.060;15.064;2023-05-20T08:01:28;5.67;;;4.43;;
4794;SDS011;2411;47.060;15.064;2023-05-20T08:03:56;4.20;;;3.90;;
4794;SDS011;2411;47.060;15.064;2023-05-20T08:06:24;4.57;;;4.13;;
4794;SDS011;2411;47.060;15.064;2023-05-20T08:08:55;8.03;;;4.90;;
4794;SDS011;2411;47.060;15.064;2023-05-20T08:11:22;4.83;;;4.07;;
4794;SDS011;2411;47.060;15.064;2023-05-20T08:13:50;8.03;;;4.00;;
4794;SDS011;2411;47.060;15.064;2023-05-20T08:16:17;4.90;;;4.40;;
4794;SDS011;2411;47.060;15.064;2023-05-20T08:18:46;4.43;;;4.00;;
4794;SDS011;2411;47.060;15.064;2023-05-20T08:21:14;5.00;;;4.50;;
4794;SDS011;2411;47.060;15.064;2023-05-20T08:23:41;6.20;;;5.20;;
4794;SDS011;2411;47.060;15.064;2023-05-20T08:26:08;5.30;;;4.80;;
4794;SDS011;2411;47.060;15.064;2023-05-20T08:28:36;15.33;;;5.30;;
4794;SDS011;2411;47.060;15.064;2023-05-20T08:31:04;5.90;;;5.40;;
4794;SDS011;2411;47.060;15.064;2023-05-20T08:33:31;5.60;;;4.07;;
4794;SDS011;2411;47.060;15.064;2023-05-20T08:35:59;4.43;;;4.13;;
4794;SDS011;2411;47.060;15.064;2023-05-20T08:38:26;5.90;;;4.87;;
4794;SDS011;2411;47.060;15.064;2023-05-20T08:40:54;5.67;;;4.63;;
4794;SDS011;2411;47.060;15.064;2023-05-20T08:43:23;7.50;;;5.00;;
4794;SDS011;2411;47.060;15.064;2023-05-20T08:45:51;4.87;;;4.33;;
4794;SDS011;2411;47.060;15.064;2023-05-20T08:48:18;8.70;;;4.13;;
4794;SDS011;2411;47.060;15.064;2023-05-20T08:50:49;5.27;;;4.87;;
4794;SDS011;2411;47.060;15.064;2023-05-20T08:53:18;4.77;;;4.43;;
4794;SDS011;2411;47.060;15.064;2023-05-20T08:55:51;3.80;;;3.60;;
4794;SDS011;2411;47.060;15.064;2023-05-20T08:58:30;4.90;;;4.50;;
4794;SDS011;2411;47.060;15.064;2023-05-20T09:01:00;5.37;;;4.97;;
4794;SDS011;2411;47.060;15.064;2023-05-20T09:03:28;5.63;;;4.50;;
4794;SDS011;2411;47.060;15.064;2023-05-20T09:06:05;9.00;;;5.23;;
4794;SDS011;2411;47.060;15.064;2023-05-20T09:08:34;5.73;;;5.23;;
4794;SDS011;2411;47.060;15.064;2023-05-20T09:11:02;4.97;;;4.30;;
4794;SDS011;2411;47.060;15.064;2023-05-20T09:13:29;6.37;;;5.13;;
4794;SDS011;2411;47.060;15.064;2023-05-20T09:16:00;5.30;;;4.80;;
4794;SDS011;2411;47.060;15.064;2023-05-20T09:18:29;7.30;;;4.40;;
4794;SDS011;2411;47.060;15.064;2023-05-20T09:20:57;8.10;;;5.50;;
4794;SDS011;2411;47.060;15.064;2023-05-20T09:23:30;6.10;;;5.57;;
4794;SDS011;2411;47.060;15.064;2023-05-20T09:25:59;5.60;;;5.13;;
4794;SDS011;2411;47.060;15.064;2023-05-20T09:28:28;5.97;;;5.47;;
4794;SDS011;2411;47.060;15.064;2023-05-20T09:30:56;10.43;;;5.70;;
4794;SDS011;2411;47.060;15.064;2023-05-20T09:33:28;7.57;;;6.53;;
4794;SDS011;2411;47.060;15.064;2023-05-20T09:36:04;6.93;;;4.93;;
4794;SDS011;2411;47.060;15.064;2023-05-20T09:38:35;7.13;;;5.83;;
4794;SDS011;2411;47.060;15.064;2023-05-20T09:41:09;7.80;;;5.03;;
4794;SDS011;2411;47.060;15.064;2023-05-20T09:43:41;5.20;;;4.70;;
4794;SDS011;2411;47.060;15.064;2023-05-20T09:46:08;4.80;;;4.40;;
4794;SDS011;2411;47.060;15.064;2023-05-20T09:48:37;5.73;;;5.23;;
4794;SDS011;2411;47.060;15.064;2023-05-20T09:51:05;6.10;;;5.60;;
4794;SDS011;2411;47.060;15.064;2023-05-20T09:53:33;5.40;;;4.90;;
4794;SDS011;2411;47.060;15.064;2023-05-20T09:56:02;5.63;;;5.13;;
4794;SDS011;2411;47.060;15.064;2023-05-20T09:58:30;8.17;;;5.50;;
4794;SDS011;2411;47.060;15.064;2023-05-20T10:01:01;8.73;;;4.67;;
4794;SDS011;2411;47.060;15.064;2023-05-20T10:03:28;9.17;;;5.77;;
4794;SDS011;2411;47.060;15.064;2023-05-20T10:19:50;5.60;;;5.03;;
4794;SDS011;2411;47.060;15.064;2023-05-20T10:22:25;9.13;;;5.10;;
4794;SDS011;2411;47.060;15.064;2023-05-20T10:24:58;9.20;;;5.17;;
4794;SDS011;2411;47.060;15.064;2023-05-20T10:27:26;5.70;;;4.70;;
4794;SDS011;2411;47.060;15.064;2023-05-20T10:29:54;4.87;;;4.47;;
4794;SDS011;2411;47.060;15.064;2023-05-20T10:32:26;5.20;;;4.73;;
4794;SDS011;2411;47.060;15.064;2023-05-20T10:35:06;5.47;;;4.93;;
4794;SDS011;2411;47.060;15.064;2023-05-20T10:37:40;6.27;;;4.67;;
4794;SDS011;2411;47.060;15.064;2023-05-20T10:40:09;7.33;;;5.00;;
4794;SDS011;2411;47.060;15.064;2023-05-20T10:42:38;4.97;;;4.40;;
4794;SDS011;2411;47.060;15.064;2023-05-20T10:45:07;5.33;;;4.90;;
4794;SDS011;2411;47.060;15.064;2023-05-20T10:47:36;4.90;;;4.50;;
4794;SDS011;2411;47.060;15.064;2023-05-20T10:50:27;6.13;;;5.10;;
4794;SDS011;2411;47.060;15.064;2023-05-20T10:53:12;4.80;;;4.40;;
4794;SDS011;2411;47.060;15.064;2023-05-20T10:55:58;5.30;;;4.43;;
4794;SDS011;2411;47.060;15.064;2023-05-20T10:58:26;5.93;;;4.63;;
4794;SDS011;2411;47.060;15.064;2023-05-20T11:00:54;4.63;;;4.33;;
4794;SDS011;2411;47.060;15.064;2023-05-20T11:03:21;5.73;;;5.13;;
4794;SDS011;2411;47.060;15.064;2023-05-20T11:05:50;5.97;;;4.27;;
4794;SDS011;2411;47.060;15.064;2023-05-20T11:08:17;5.20;;;4.80;;
4794;SDS011;2411;47.060;15.064;2023-05-20T11:10:57;6.27;;;5.00;;
4794;SDS011;2411;47.060;15.064;2023-05-20T11:13:25;5.00;;;4.50;;
4794;SDS011;2411;47.060;15.064;2023-05-20T11:15:52;6.00;;;5.50;;
4794;SDS011;2411;47.060;15.064;2023-05-20T11:18:21;5.70;;;5.17;;
4794;SDS011;2411;47.060;15.064;2023-05-20T11:20:48;5.23;;;4.73;;
4794;SDS011;2411;47.060;15.064;2023-05-20T11:23:16;4.90;;;4.30;;
4794;SDS011;2411;47.060;15.064;2023-05-20T11:25:44;5.83;;;5.33;;
4794;SDS011;2411;47.060;15.064;2023-05-20T11:28:12;6.63;;;5.10;;
4794;SDS011;2411;47.060;15.064;2023-05-20T11:30:43;5.10;;;4.60;;
4794;SDS011;2411;47.060;15.064;2023-05-20T11:33:11;5.27;;;4.87;;
4794;SDS011;2411;47.060;15.064;2023-05-20T11:35:43;5.73;;;4.97;;
4794;SDS011;2411;47.060;15.064;2023-05-20T11:38:12;5.10;;;4.70;;
4794;SDS011;2411;47.060;15.064;2023-05-20T11:40:43;5.70;;;5.20;;
4794;SDS011;2411;47.060;15.064;2023-05-20T11:43:17;7.23;;;4.80;;
4794;SDS011;2411;47.060;15.064;2023-05-20T11:45:46;6.63;;;4.70;;
4794;SDS011;2411;47.060;15.064;2023-05-20T11:48:18;5.13;;;4.73;;
4794;SDS011;2411;47.060;15.064;2023-05-20T11:50:46;5.37;;;4.87;;
4794;SDS011;2411;47.060;15.064;2023-05-20T11:53:18;7.70;;;4.40;;
4794;SDS011;2411;47.060;15.064;2023-05-20T11:55:47;6.00;;;5.10;;
4794;SDS011;2411;47.060;15.064;2023-05-20T11:58:24;6.77;;;5.30;;
4794;SDS011;2411;47.060;15.064;2023-05-20T12:00:52;5.90;;;5.03;;
4794;SDS011;2411;47.060;15.064;2023-05-20T12:03:31;5.30;;;4.80;;
4794;SDS011;2411;47.060;15.064;2023-05-20T12:06:02;7.30;;;5.10;;
4794;SDS011;2411;47.060;15.064;2023-05-20T12:08:29;6.60;;;4.53;;
4794;SDS011;2411;47.060;15.064;2023-05-20T12:10:57;5.60;;;5.00;;
4794;SDS011;2411;47.060;15.064;2023-05-20T12:13:24;5.97;;;5.27;;
4794;SDS011;2411;47.060;15.064;2023-05-20T12:15:51;5.57;;;5.07;;
4794;SDS011;2411;47.060;15.064;2023-05-20T12:18:20;6.03;;;4.40;;
4794;SDS011;2411;47.060;15.064;2023-05-20T12:20:48;7.70;;;4.90;;
4794;SDS011;2411;47.060;15.064;2023-05-20T12:23:15;6.50;;;5.20;;
4794;SDS011;2411;47.060;15.064;2023-05-20T12:25:43;4.50;;;4.20;;
4794;SDS011;2411;47.060;15.064;2023-05-20T12:28:12;8.00;;;4.73;;
4794;SDS011;2411;47.060;15.064;2023-05-20T12:30:40;7.27;;;5.37;;
4794;SDS011;2411;47.060;15.064;2023-05-20T12:33:07;5.83;;;5.10;;
4794;SDS011;2411;47.060;15.064;2023-05-20T12:35:36;8.13;;;5.03;;
4794;SDS011;2411;47.060;15.064;2023-05-20T12:38:07;7.60;;;4.90;;
4794;SDS011;2411;47.060;15.064;2023-05-20T12:40:35;5.43;;;4.93;;
4794;SDS011;2411;47.060;15.064;2023-05-20T12:43:04;7.40;;;4.63;;
4794;SDS011;2411;47.060;15.064;2023-05-20T12:45:31;6.63;;;4.10;;
4794;SDS011;2411;47.060;15.064;2023-05-20T12:47:59;5.50;;;4.20;;
4794;SDS011;2411;47.060;15.064;2023-05-20T12:50:27;4.80;;;4.47;;
4794;SDS011;2411;47.060;15.064;2023-05-20T12:52:54;5.60;;;5.20;;
4794;SDS011;2411;47.060;15.064;2023-05-20T12:55:22;7.50;;;5.03;;
4794;SDS011;2411;47.060;15.064;2023-05-20T12:57:49;5.17;;;4.67;;
4794;SDS011;2411;47.060;15.064;2023-05-20T13:00:17;5.93;;;5.33;;
4794;SDS011;2411;47.060;15.064;2023-05-20T13:02:44;5.87;;;5.30;;
4794;SDS011;2411;47.060;15.064;2023-05-20T13:05:11;5.33;;;4.33;;
4794;SDS011;2411;47.060;15.064;2023-05-20T13:07:39;4.90;;;4.50;;
4794;SDS011;2411;47.060;15.064;2023-05-20T13:10:06;7.80;;;4.70;;
4794;SDS011;2411;47.060;15.064;2023-05-20T13:12:36;6.30;;;5.03;;
4794;SDS011;2411;47.060;15.064;2023-05-20T13:15:04;5.83;;;4.90;;
4794;SDS011;2411;47.060;15.064;2023-05-20T13:17:32;6.10;;;5.57;;
4794;SDS011;2411;47.060;15.064;2023-05-20T13:19:59;8.70;;;5.87;;
4794;SDS011;2411;47.060;15.064;2023-05-20T13:22:26;10.23;;;7.07;;
4794;SDS011;2411;47.060;15.064;2023-05-20T13:24:54;13.27;;;8.50;;
4794;SDS011;2411;47.060;15.064;2023-05-20T13:27:21;11.40;;;7.03;;
4794;SDS011;2411;47.060;15.064;2023-05-20T13:29:48;6.33;;;5.60;;
4794;SDS011;2411;47.060;15.064;2023-05-20T13:32:16;7.50;;;6.53;;
4794;SDS011;2411;47.060;15.064;2023-05-20T13:34:43;9.47;;;6.30;;
4794;SDS011;2411;47.060;15.064;2023-05-20T13:37:10;8.00;;;7.20;;
4794;SDS011;2411;47.060;15.064;2023-05-20T13:39:38;7.43;;;6.67;;
4794;SDS011;2411;47.060;15.064;2023-05-20T13:42:05;7.67;;;6.90;;
4794;SDS011;2411;47.060;15.064;2023-05-20T13:44:32;8.00;;;6.80;;
4794;SDS011;2411;47.060;15.064;2023-05-20T13:47:00;7.50;;;6.70;;
4794;SDS011;2411;47.060;15.064;2023-05-20T13:49:27;7.13;;;5.57;;
4794;SDS011;2411;47.060;15.064;2023-05-20T13:51:54;7.07;;;6.27;;
4794;SDS011;2411;47.060;15.064;2023-05-20T13:54:22;8.03;;;7.00;;
4794;SDS011;2411;47.060;15.064;2023-05-20T13:56:49;6.27;;;5.73;;
4794;SDS011;2411;47.060;15.064;2023-05-20T13:59:17;7.20;;;6.50;;
4794;SDS011;2411;47.060;15.064;2023-05-20T14:01:44;8.20;;;6.93;;
4794;SDS011;2411;47.060;15.064;2023-05-20T14:04:12;7.37;;;6.67;;
4794;SDS011;2411;47.060;15.064;2023-05-20T14:06:39;11.33;;;6.93;;
4794;SDS011;2411;47.060;15.064;2023-05-20T14:09:07;7.83;;;6.50;;
4794;SDS011;2411;47.060;15.064;2023-05-20T14:11:34;8.50;;;7.70;;
4794;SDS011;2411;47.060;15.064;2023-05-20T14:14:02;9.77;;;6.50;;
4794;SDS011;2411;47.060;15.064;2023-05-20T14:16:30;11.57;;;7.53;;
4794;SDS011;2411;47.060;15.064;2023-05-20T14:18:58;10.03;;;7.07;;
4794;SDS011;2411;47.060;15.064;2023-05-20T14:21:26;7.10;;;6.50;;
4794;SDS011;2411;47.060;15.064;2023-05-20T14:23:53;7.10;;;6.40;;
4794;SDS011;2411;47.060;15.064;2023-05-20T14:26:20;9.93;;;7.47;;
4794;SDS011;2411;47.060;15.064;2023-05-20T14:28:48;8.20;;;7.30;;
4794;SDS011;2411;47.060;15.064;2023-05-20T14:31:15;9.23;;;7.73;;
4794;SDS011;2411;47.060;15.064;2023-05-20T14:33:43;8.90;;;8.03;;
4794;SDS011;2411;47.060;15.064;2023-05-20T14:36:10;9.10;;;7.70;;
4794;SDS011;2411;47.060;15.064;2023-05-20T14:38:37;9.73;;;8.00;;
4794;SDS011;2411;47.060;15.064;2023-05-20T14:41:05;9.50;;;7.40;;
4794;SDS011;2411;47.060;15.064;2023-05-20T14:43:32;7.33;;;6.57;;
4794;SDS011;2411;47.060;15.064;2023-05-20T14:46:00;7.03;;;6.33;;
4794;SDS011;2411;47.060;15.064;2023-05-20T14:48:28;7.50;;;6.53;;
4794;SDS011;2411;47.060;15.064;2023-05-20T14:50:56;13.03;;;7.37;;
4794;SDS011;2411;47.060;15.064;2023-05-20T14:53:23;10.70;;;6.47;;
4794;SDS011;2411;47.060;15.064;2023-05-20T14:55:51;9.70;;;6.70;;
4794;SDS011;2411;47.060;15.064;2023-05-20T14:58:18;7.57;;;6.87;;
4794;SDS011;2411;47.060;15.064;2023-05-20T15:00:46;7.37;;;6.63;;
4794;SDS011;2411;47.060;15.064;2023-05-20T15:03:13;6.97;;;6.00;;
4794;SDS011;2411;47.060;15.064;2023-05-20T15:05:40;7.87;;;6.80;;
4794;SDS011;2411;47.060;15.064;2023-05-20T15:08:08;6.60;;;6.00;;
4794;SDS011;2411;47.060;15.064;2023-05-20T15:10:35;7.43;;;6.53;;
4794;SDS011;2411;47.060;15.064;2023-05-20T15:13:03;7.90;;;6.57;;
4794;SDS011;2411;47.060;15.064;2023-05-20T15:15:31;7.83;;;6.90;;
4794;SDS011;2411;47.060;15.064;2023-05-20T15:17:59;10.10;;;6.77;;
4794;SDS011;2411;47.060;15.064;2023-05-20T15:20:27;7.30;;;6.60;;
4794;SDS011;2411;47.060;15.064;2023-05-20T15:22:57;6.77;;;6.13;;